sensor_id;sensor_type;location;lat;lon;timestamp;temperature;humidity
6581;DHT22;3324;50.796;7.228;2022-08-19T00:02:21;19.80;99.90
6581;DHT22;3324;50.796;7.228;2022-08-19T00:04:47;19.80;99.90
6581;DHT22;3324;50.796;7.228;2022-08-19T00:07:18;19.70;99.90
6581;DHT22;3324;50.796;7.228;2022-08-19T00:09:44;19.60;99.90
6581;DHT22;3324;50.796;7.228;2022-08-19T00:12:10;19.60;99.90
6581;DHT22;3324;50.796;7.228;2022-08-19T00:14:36;19.50;99.90
6581;DHT22;3324;50.796;7.228;2022-08-19T00:17:04;19.50;99.90
6581;DHT22;3324;50.796;7.228;2022-08-19T00:19:30;19.50;99.90
6581;DHT22;3324;50.796;7.228;2022-08-19T00:21:56;19.50;99.90
6581;DHT22;3324;50.796;7.228;2022-08-19T00:24:22;19.50;99.90
6581;DHT22;3324;50.796;7.228;2022-08-19T00:26:48;19.50;99.90
6581;DHT22;3324;50.796;7.228;2022-08-19T00:29:16;19.50;99.90
6581;DHT22;3324;50.796;7.228;2022-08-19T00:32:00;19.60;99.90
6581;DHT22;3324;50.796;7.228;2022-08-19T00:34:26;19.50;99.90
6581;DHT22;3324;50.796;7.228;2022-08-19T00:36:54;19.40;99.90
6581;DHT22;3324;50.796;7.228;2022-08-19T00:39:20;19.30;99.90
6581;DHT22;3324;50.796;7.228;2022-08-19T00:41:46;19.30;99.90
6581;DHT22;3324;50.796;7.228;2022-08-19T00:44:19;19.30;99.90
6581;DHT22;3324;50.796;7.228;2022-08-19T00:46:48;19.20;99.90
6581;DHT22;3324;50.796;7.228;2022-08-19T00:51:45;19.20;99.90
6581;DHT22;3324;50.796;7.228;2022-08-19T00:54:11;19.10;99.90
6581;DHT22;3324;50.796;7.228;2022-08-19T00:56:37;19.10;99.90
6581;DHT22;3324;50.796;7.228;2022-08-19T00:59:03;19.00;99.90
6581;DHT22;3324;50.796;7.228;2022-08-19T01:01:38;19.00;99.90
6581;DHT22;3324;50.796;7.228;2022-08-19T01:04:04;19.00;99.90
6581;DHT22;3324;50.796;7.228;2022-08-19T01:06:30;18.90;99.90
6581;DHT22;3324;50.796;7.228;2022-08-19T01:08:58;18.90;99.90
6581;DHT22;3324;50.796;7.228;2022-08-19T01:11:24;18.90;99.90
6581;DHT22;3324;50.796;7.228;2022-08-19T01:13:51;18.80;99.90
6581;DHT22;3324;50.796;7.228;2022-08-19T01:16:19;18.80;99.90
6581;DHT22;3324;50.796;7.228;2022-08-19T01:18:45;18.80;99.90
6581;DHT22;3324;50.796;7.228;2022-08-19T01:21:22;18.80;99.90
6581;DHT22;3324;50.796;7.228;2022-08-19T01:23:50;18.70;99.90
6581;DHT22;3324;50.796;7.228;2022-08-19T01:26:19;18.70;99.90
6581;DHT22;3324;50.796;7.228;2022-08-19T01:28:47;18.70;99.90
6581;DHT22;3324;50.796;7.228;2022-08-19T01:31:18;18.70;99.90
6581;DHT22;3324;50.796;7.228;2022-08-19T01:33:44;18.60;99.90
6581;DHT22;3324;50.796;7.228;2022-08-19T01:36:15;18.70;99.90
6581;DHT22;3324;50.796;7.228;2022-08-19T01:38:42;18.60;99.90
6581;DHT22;3324;50.796;7.228;2022-08-19T01:41:09;18.60;99.90
6581;DHT22;3324;50.796;7.228;2022-08-19T01:43:36;18.70;99.90
6581;DHT22;3324;50.796;7.228;2022-08-19T01:46:03;18.70;99.90
6581;DHT22;3324;50.796;7.228;2022-08-19T01:48:37;18.60;99.90
6581;DHT22;3324;50.796;7.228;2022-08-19T01:51:04;18.60;99.90
6581;DHT22;3324;50.796;7.228;2022-08-19T01:53:30;18.60;99.90
6581;DHT22;3324;50.796;7.228;2022-08-19T01:55:56;18.60;99.90
6581;DHT22;3324;50.796;7.228;2022-08-19T01:58:33;18.60;99.90
6581;DHT22;3324;50.796;7.228;2022-08-19T02:01:03;18.60;99.90
6581;DHT22;3324;50.796;7.228;2022-08-19T02:03:29;18.60;99.90
6581;DHT22;3324;50.796;7.228;2022-08-19T02:05:57;18.60;99.90
6581;DHT22;3324;50.796;7.228;2022-08-19T02:08:28;18.60;99.90
6581;DHT22;3324;50.796;7.228;2022-08-19T02:10:53;18.60;99.90
6581;DHT22;3324;50.796;7.228;2022-08-19T02:13:19;18.60;99.90
6581;DHT22;3324;50.796;7.228;2022-08-19T02:15:45;18.50;99.90
6581;DHT22;3324;50.796;7.228;2022-08-19T02:18:11;18.50;99.90
6581;DHT22;3324;50.796;7.228;2022-08-19T02:20:39;18.50;99.90
6581;DHT22;3324;50.796;7.228;2022-08-19T02:23:05;18.50;99.90
6581;DHT22;3324;50.796;7.228;2022-08-19T02:25:31;18.40;99.90
6581;DHT22;3324;50.796;7.228;2022-08-19T02:27:56;18.40;99.90
6581;DHT22;3324;50.796;7.228;2022-08-19T02:30:22;18.40;99.90
6581;DHT22;3324;50.796;7.228;2022-08-19T02:32:50;18.40;99.90
6581;DHT22;3324;50.796;7.228;2022-08-19T02:35:16;18.40;99.90
6581;DHT22;3324;50.796;7.228;2022-08-19T02:37:42;18.30;99.90
6581;DHT22;3324;50.796;7.228;2022-08-19T02:40:28;18.30;99.90
6581;DHT22;3324;50.796;7.228;2022-08-19T02:42:54;18.30;99.90
6581;DHT22;3324;50.796;7.228;2022-08-19T02:45:20;18.30;99.90
6581;DHT22;3324;50.796;7.228;2022-08-19T02:47:46;18.20;99.90
6581;DHT22;3324;50.796;7.228;2022-08-19T02:50:12;18.30;99.90
6581;DHT22;3324;50.796;7.228;2022-08-19T02:52:38;18.20;99.90
6581;DHT22;3324;50.796;7.228;2022-08-19T02:55:04;18.20;99.90
6581;DHT22;3324;50.796;7.228;2022-08-19T02:57:30;18.20;99.90
6581;DHT22;3324;50.796;7.228;2022-08-19T02:59:57;18.20;99.90
6581;DHT22;3324;50.796;7.228;2022-08-19T03:02:23;18.20;99.90
6581;DHT22;3324;50.796;7.228;2022-08-19T03:04:48;18.20;99.90
6581;DHT22;3324;50.796;7.228;2022-08-19T03:07:15;18.20;99.90
6581;DHT22;3324;50.796;7.228;2022-08-19T03:09:42;18.20;99.90
6581;DHT22;3324;50.796;7.228;2022-08-19T03:12:10;18.20;99.90
6581;DHT22;3324;50.796;7.228;2022-08-19T03:14:37;18.20;99.90
6581;DHT22;3324;50.796;7.228;2022-08-19T03:17:03;18.00;99.90
6581;DHT22;3324;50.796;7.228;2022-08-19T03:19:30;18.00;99.90
6581;DHT22;3324;50.796;7.228;2022-08-19T03:21:56;18.10;99.90
6581;DHT22;3324;50.796;7.228;2022-08-19T03:24:23;18.10;99.90
6581;DHT22;3324;50.796;7.228;2022-08-19T03:26:51;18.00;99.90
6581;DHT22;3324;50.796;7.228;2022-08-19T03:29:18;18.10;99.90
6581;DHT22;3324;50.796;7.228;2022-08-19T03:31:44;18.00;99.90
6581;DHT22;3324;50.796;7.228;2022-08-19T03:34:12;18.00;99.90
6581;DHT22;3324;50.796;7.228;2022-08-19T03:36:38;18.10;99.90
6581;DHT22;3324;50.796;7.228;2022-08-19T03:39:04;18.10;99.90
6581;DHT22;3324;50.796;7.228;2022-08-19T03:41:33;18.00;99.90
6581;DHT22;3324;50.796;7.228;2022-08-19T03:44:01;18.00;99.90
6581;DHT22;3324;50.796;7.228;2022-08-19T03:46:29;18.00;99.90
6581;DHT22;3324;50.796;7.228;2022-08-19T03:48:57;18.10;99.90
6581;DHT22;3324;50.796;7.228;2022-08-19T03:53:51;18.00;99.90
6581;DHT22;3324;50.796;7.228;2022-08-19T03:56:16;18.00;99.90
6581;DHT22;3324;50.796;7.228;2022-08-19T03:58:42;18.00;99.90
6581;DHT22;3324;50.796;7.228;2022-08-19T04:01:13;18.00;99.90
6581;DHT22;3324;50.796;7.228;2022-08-19T04:03:39;17.90;99.90
6581;DHT22;3324;50.796;7.228;2022-08-19T04:06:18;17.90;99.90
6581;DHT22;3324;50.796;7.228;2022-08-19T04:08:48;17.90;99.90
6581;DHT22;3324;50.796;7.228;2022-08-19T04:11:17;17.90;99.90
6581;DHT22;3324;50.796;7.228;2022-08-19T04:13:43;17.90;99.90
6581;DHT22;3324;50.796;7.228;2022-08-19T04:16:10;17.90;99.90
6581;DHT22;3324;50.796;7.228;2022-08-19T04:18:37;17.90;99.90
6581;DHT22;3324;50.796;7.228;2022-08-19T04:21:04;17.90;99.90
6581;DHT22;3324;50.796;7.228;2022-08-19T04:23:30;17.80;99.90
6581;DHT22;3324;50.796;7.228;2022-08-19T04:25:56;17.80;99.90
6581;DHT22;3324;50.796;7.228;2022-08-19T04:28:22;17.80;99.90
6581;DHT22;3324;50.796;7.228;2022-08-19T04:30:50;17.80;99.90
6581;DHT22;3324;50.796;7.228;2022-08-19T04:33:21;17.80;99.90
6581;DHT22;3324;50.796;7.228;2022-08-19T04:35:49;17.70;99.90
6581;DHT22;3324;50.796;7.228;2022-08-19T04:38:18;17.70;99.90
6581;DHT22;3324;50.796;7.228;2022-08-19T04:40:46;17.70;99.90
6581;DHT22;3324;50.796;7.228;2022-08-19T04:43:31;17.70;99.90
6581;DHT22;3324;50.796;7.228;2022-08-19T04:45:57;17.70;99.90
6581;DHT22;3324;50.796;7.228;2022-08-19T04:48:24;17.70;99.90
6581;DHT22;3324;50.796;7.228;2022-08-19T04:50:56;17.70;99.90
6581;DHT22;3324;50.796;7.228;2022-08-19T04:53:27;17.70;99.90
6581;DHT22;3324;50.796;7.228;2022-08-19T04:55:55;17.80;99.90
6581;DHT22;3324;50.796;7.228;2022-08-19T04:58:22;17.70;99.90
6581;DHT22;3324;50.796;7.228;2022-08-19T05:00:47;17.70;99.90
6581;DHT22;3324;50.796;7.228;2022-08-19T05:03:13;17.70;99.90
6581;DHT22;3324;50.796;7.228;2022-08-19T05:05:41;17.70;99.90
6581;DHT22;3324;50.796;7.228;2022-08-19T05:08:07;17.70;99.90
6581;DHT22;3324;50.796;7.228;2022-08-19T05:10:35;17.70;99.90
6581;DHT22;3324;50.796;7.228;2022-08-19T05:13:02;17.60;99.90
6581;DHT22;3324;50.796;7.228;2022-08-19T05:15:28;17.60;99.90
6581;DHT22;3324;50.796;7.228;2022-08-19T05:17:54;17.60;99.90
6581;DHT22;3324;50.796;7.228;2022-08-19T05:20:38;17.70;99.90
6581;DHT22;3324;50.796;7.228;2022-08-19T05:23:23;17.70;99.90
6581;DHT22;3324;50.796;7.228;2022-08-19T05:25:50;17.80;99.90
6581;DHT22;3324;50.796;7.228;2022-08-19T05:28:17;17.80;99.90
6581;DHT22;3324;50.796;7.228;2022-08-19T05:30:44;17.80;99.90
6581;DHT22;3324;50.796;7.228;2022-08-19T05:33:10;17.90;99.90
6581;DHT22;3324;50.796;7.228;2022-08-19T05:35:38;18.00;99.90
6581;DHT22;3324;50.796;7.228;2022-08-19T05:38:05;18.00;99.90
6581;DHT22;3324;50.796;7.228;2022-08-19T05:40:37;18.00;99.90
6581;DHT22;3324;50.796;7.228;2022-08-19T05:43:07;18.00;99.90
6581;DHT22;3324;50.796;7.228;2022-08-19T05:45:37;18.00;99.90
6581;DHT22;3324;50.796;7.228;2022-08-19T05:48:03;17.90;99.90
6581;DHT22;3324;50.796;7.228;2022-08-19T05:50:28;18.00;99.90
6581;DHT22;3324;50.796;7.228;2022-08-19T05:52:55;18.00;99.90
6581;DHT22;3324;50.796;7.228;2022-08-19T05:55:20;18.10;99.90
6581;DHT22;3324;50.796;7.228;2022-08-19T05:57:49;18.10;99.90
6581;DHT22;3324;50.796;7.228;2022-08-19T06:00:14;18.20;99.90
6581;DHT22;3324;50.796;7.228;2022-08-19T06:02:40;18.20;99.90
6581;DHT22;3324;50.796;7.228;2022-08-19T06:05:07;18.20;99.90
6581;DHT22;3324;50.796;7.228;2022-08-19T06:07:38;18.20;99.90
6581;DHT22;3324;50.796;7.228;2022-08-19T06:10:09;18.20;99.90
6581;DHT22;3324;50.796;7.228;2022-08-19T06:12:36;18.20;99.90
6581;DHT22;3324;50.796;7.228;2022-08-19T06:15:05;18.20;99.90
6581;DHT22;3324;50.796;7.228;2022-08-19T06:17:31;18.20;99.90
6581;DHT22;3324;50.796;7.228;2022-08-19T06:19:57;18.30;99.90
6581;DHT22;3324;50.796;7.228;2022-08-19T06:22:23;18.30;99.90
6581;DHT22;3324;50.796;7.228;2022-08-19T06:24:49;18.30;99.90
6581;DHT22;3324;50.796;7.228;2022-08-19T06:27:18;18.30;99.90
6581;DHT22;3324;50.796;7.228;2022-08-19T06:29:43;18.30;99.90
6581;DHT22;3324;50.796;7.228;2022-08-19T06:32:10;18.40;99.90
6581;DHT22;3324;50.796;7.228;2022-08-19T06:34:36;18.40;99.90
6581;DHT22;3324;50.796;7.228;2022-08-19T06:37:02;18.40;99.90
6581;DHT22;3324;50.796;7.228;2022-08-19T06:39:31;18.50;99.90
6581;DHT22;3324;50.796;7.228;2022-08-19T06:42:00;18.50;99.90
6581;DHT22;3324;50.796;7.228;2022-08-19T06:44:28;18.70;99.90
6581;DHT22;3324;50.796;7.228;2022-08-19T06:46:54;18.90;99.90
6581;DHT22;3324;50.796;7.228;2022-08-19T06:49:21;18.90;99.90
6581;DHT22;3324;50.796;7.228;2022-08-19T06:51:48;19.10;99.90
6581;DHT22;3324;50.796;7.228;2022-08-19T06:54:15;19.20;99.90
6581;DHT22;3324;50.796;7.228;2022-08-19T06:56:41;19.30;99.90
6581;DHT22;3324;50.796;7.228;2022-08-19T06:59:14;19.40;99.90
6581;DHT22;3324;50.796;7.228;2022-08-19T07:01:42;19.50;99.90
6581;DHT22;3324;50.796;7.228;2022-08-19T07:04:11;19.70;99.90
6581;DHT22;3324;50.796;7.228;2022-08-19T07:06:36;19.80;99.90
6581;DHT22;3324;50.796;7.228;2022-08-19T07:09:06;19.90;99.90
6581;DHT22;3324;50.796;7.228;2022-08-19T07:11:32;20.00;99.90
6581;DHT22;3324;50.796;7.228;2022-08-19T07:13:59;20.20;99.90
6581;DHT22;3324;50.796;7.228;2022-08-19T07:16:25;20.30;99.90
6581;DHT22;3324;50.796;7.228;2022-08-19T07:18:53;20.40;99.90
6581;DHT22;3324;50.796;7.228;2022-08-19T07:21:25;20.60;99.90
6581;DHT22;3324;50.796;7.228;2022-08-19T07:23:53;20.60;99.90
6581;DHT22;3324;50.796;7.228;2022-08-19T07:26:25;20.80;99.90
6581;DHT22;3324;50.796;7.228;2022-08-19T07:28:51;20.90;99.90
6581;DHT22;3324;50.796;7.228;2022-08-19T07:31:20;21.10;99.90
6581;DHT22;3324;50.796;7.228;2022-08-19T07:33:47;21.10;99.90
6581;DHT22;3324;50.796;7.228;2022-08-19T07:36:16;21.30;99.90
6581;DHT22;3324;50.796;7.228;2022-08-19T07:38:44;21.40;99.90
6581;DHT22;3324;50.796;7.228;2022-08-19T07:41:16;21.40;99.90
6581;DHT22;3324;50.796;7.228;2022-08-19T07:43:42;21.50;99.90
6581;DHT22;3324;50.796;7.228;2022-08-19T07:46:10;21.50;99.90
6581;DHT22;3324;50.796;7.228;2022-08-19T07:48:36;21.60;99.90
6581;DHT22;3324;50.796;7.228;2022-08-19T07:51:04;21.70;99.90
6581;DHT22;3324;50.796;7.228;2022-08-19T07:53:31;21.80;99.90
6581;DHT22;3324;50.796;7.228;2022-08-19T07:56:01;21.90;99.90
6581;DHT22;3324;50.796;7.228;2022-08-19T07:58:29;22.10;99.90
6581;DHT22;3324;50.796;7.228;2022-08-19T08:00:55;22.20;99.90
6581;DHT22;3324;50.796;7.228;2022-08-19T08:03:22;22.30;99.90
6581;DHT22;3324;50.796;7.228;2022-08-19T08:06:11;22.50;99.90
6581;DHT22;3324;50.796;7.228;2022-08-19T08:08:55;22.70;99.90
6581;DHT22;3324;50.796;7.228;2022-08-19T08:11:40;22.90;99.90
6581;DHT22;3324;50.796;7.228;2022-08-19T08:14:06;23.10;99.90
6581;DHT22;3324;50.796;7.228;2022-08-19T08:16:37;23.30;99.90
6581;DHT22;3324;50.796;7.228;2022-08-19T08:19:06;23.40;99.90
6581;DHT22;3324;50.796;7.228;2022-08-19T08:21:33;23.40;99.90
6581;DHT22;3324;50.796;7.228;2022-08-19T08:23:59;23.50;99.90
6581;DHT22;3324;50.796;7.228;2022-08-19T08:26:25;23.70;99.90
6581;DHT22;3324;50.796;7.228;2022-08-19T08:28:52;23.80;99.90
6581;DHT22;3324;50.796;7.228;2022-08-19T08:31:17;23.80;99.90
6581;DHT22;3324;50.796;7.228;2022-08-19T08:33:45;23.80;99.90
6581;DHT22;3324;50.796;7.228;2022-08-19T08:36:11;23.70;99.90
6581;DHT22;3324;50.796;7.228;2022-08-19T08:38:40;23.70;99.90
6581;DHT22;3324;50.796;7.228;2022-08-19T08:43:47;23.80;99.90
6581;DHT22;3324;50.796;7.228;2022-08-19T08:46:21;23.90;99.90
6581;DHT22;3324;50.796;7.228;2022-08-19T08:51:27;24.20;99.90
6581;DHT22;3324;50.796;7.228;2022-08-19T08:53:55;24.30;99.90
6581;DHT22;3324;50.796;7.228;2022-08-19T08:56:21;24.50;99.90
6581;DHT22;3324;50.796;7.228;2022-08-19T08:59:01;24.50;99.90
6581;DHT22;3324;50.796;7.228;2022-08-19T09:01:29;24.50;99.90
6581;DHT22;3324;50.796;7.228;2022-08-19T09:03:54;24.40;99.90
6581;DHT22;3324;50.796;7.228;2022-08-19T09:06:40;24.40;99.90
6581;DHT22;3324;50.796;7.228;2022-08-19T09:09:19;24.70;99.90
6581;DHT22;3324;50.796;7.228;2022-08-19T09:14:39;24.70;99.90
6581;DHT22;3324;50.796;7.228;2022-08-19T09:17:12;24.90;99.90
6581;DHT22;3324;50.796;7.228;2022-08-19T09:22:34;25.30;99.90
6581;DHT22;3324;50.796;7.228;2022-08-19T09:25:01;25.50;99.90
6581;DHT22;3324;50.796;7.228;2022-08-19T09:27:27;25.80;99.90
6581;DHT22;3324;50.796;7.228;2022-08-19T09:29:53;25.90;99.90
6581;DHT22;3324;50.796;7.228;2022-08-19T09:32:21;25.90;99.90
6581;DHT22;3324;50.796;7.228;2022-08-19T09:34:47;25.90;99.90
6581;DHT22;3324;50.796;7.228;2022-08-19T09:37:12;26.10;99.90
6581;DHT22;3324;50.796;7.228;2022-08-19T09:39:39;26.20;99.90
6581;DHT22;3324;50.796;7.228;2022-08-19T09:42:06;26.40;99.90
6581;DHT22;3324;50.796;7.228;2022-08-19T09:44:38;26.50;99.90
6581;DHT22;3324;50.796;7.228;2022-08-19T09:47:04;26.40;99.90
6581;DHT22;3324;50.796;7.228;2022-08-19T09:49:30;26.40;99.90
6581;DHT22;3324;50.796;7.228;2022-08-19T09:51:57;26.60;99.90
6581;DHT22;3324;50.796;7.228;2022-08-19T09:54:23;26.70;99.90
6581;DHT22;3324;50.796;7.228;2022-08-19T09:56:49;26.80;99.90
6581;DHT22;3324;50.796;7.228;2022-08-19T09:59:16;26.70;99.90
6581;DHT22;3324;50.796;7.228;2022-08-19T10:01:41;26.70;99.90
6581;DHT22;3324;50.796;7.228;2022-08-19T10:04:07;26.70;99.90
6581;DHT22;3324;50.796;7.228;2022-08-19T10:06:38;26.80;99.90
6581;DHT22;3324;50.796;7.228;2022-08-19T10:09:06;27.00;99.90
6581;DHT22;3324;50.796;7.228;2022-08-19T10:11:34;27.10;99.90
6581;DHT22;3324;50.796;7.228;2022-08-19T10:14:01;27.10;99.90
6581;DHT22;3324;50.796;7.228;2022-08-19T10:16:27;27.10;99.90
6581;DHT22;3324;50.796;7.228;2022-08-19T10:18:53;26.80;99.90
6581;DHT22;3324;50.796;7.228;2022-08-19T10:21:29;26.80;99.90
6581;DHT22;3324;50.796;7.228;2022-08-19T10:23:58;27.00;99.90
6581;DHT22;3324;50.796;7.228;2022-08-19T10:26:26;27.20;99.90
6581;DHT22;3324;50.796;7.228;2022-08-19T10:28:52;27.40;99.90
6581;DHT22;3324;50.796;7.228;2022-08-19T10:31:23;27.40;99.90
6581;DHT22;3324;50.796;7.228;2022-08-19T10:33:50;27.30;99.90
6581;DHT22;3324;50.796;7.228;2022-08-19T10:36:25;27.10;99.90
6581;DHT22;3324;50.796;7.228;2022-08-19T10:38:52;27.20;99.90
6581;DHT22;3324;50.796;7.228;2022-08-19T10:41:23;27.30;99.90
6581;DHT22;3324;50.796;7.228;2022-08-19T10:44:04;27.30;99.90
6581;DHT22;3324;50.796;7.228;2022-08-19T10:46:31;27.60;99.90
6581;DHT22;3324;50.796;7.228;2022-08-19T10:48:58;27.60;99.90
6581;DHT22;3324;50.796;7.228;2022-08-19T10:51:24;27.40;99.90
6581;DHT22;3324;50.796;7.228;2022-08-19T10:54:09;27.50;99.90
6581;DHT22;3324;50.796;7.228;2022-08-19T10:56:35;27.70;99.90
6581;DHT22;3324;50.796;7.228;2022-08-19T10:59:28;27.80;99.90
6581;DHT22;3324;50.796;7.228;2022-08-19T11:01:59;28.00;99.90
6581;DHT22;3324;50.796;7.228;2022-08-19T11:04:25;28.20;99.90
6581;DHT22;3324;50.796;7.228;2022-08-19T11:06:51;28.40;99.90
6581;DHT22;3324;50.796;7.228;2022-08-19T11:09:21;28.50;99.90
6581;DHT22;3324;50.796;7.228;2022-08-19T11:11:47;28.50;99.90
6581;DHT22;3324;50.796;7.228;2022-08-19T11:14:15;28.60;99.90
6581;DHT22;3324;50.796;7.228;2022-08-19T11:16:42;28.70;99.90
6581;DHT22;3324;50.796;7.228;2022-08-19T11:19:09;28.70;99.90
6581;DHT22;3324;50.796;7.228;2022-08-19T11:21:41;28.60;99.90
6581;DHT22;3324;50.796;7.228;2022-08-19T11:24:10;28.60;99.90
6581;DHT22;3324;50.796;7.228;2022-08-19T11:26:36;28.70;99.90
6581;DHT22;3324;50.796;7.228;2022-08-19T11:29:03;28.90;99.90
6581;DHT22;3324;50.796;7.228;2022-08-19T11:31:31;29.00;99.90
6581;DHT22;3324;50.796;7.228;2022-08-19T11:33:59;29.10;99.90
6581;DHT22;3324;50.796;7.228;2022-08-19T11:36:26;29.20;99.40
6581;DHT22;3324;50.796;7.228;2022-08-19T11:38:53;29.40;99.00
6581;DHT22;3324;50.796;7.228;2022-08-19T11:41:21;29.50;98.20
6581;DHT22;3324;50.796;7.228;2022-08-19T11:43:48;29.70;98.20
6581;DHT22;3324;50.796;7.228;2022-08-19T11:46:15;29.60;97.50
6581;DHT22;3324;50.796;7.228;2022-08-19T11:48:42;29.50;97.50
6581;DHT22;3324;50.796;7.228;2022-08-19T11:51:13;29.50;96.90
6581;DHT22;3324;50.796;7.228;2022-08-19T11:53:39;29.70;95.80
6581;DHT22;3324;50.796;7.228;2022-08-19T11:56:06;29.70;95.80
6581;DHT22;3324;50.796;7.228;2022-08-19T11:58:33;29.70;95.70
6581;DHT22;3324;50.796;7.228;2022-08-19T12:00:59;29.80;96.00
6581;DHT22;3324;50.796;7.228;2022-08-19T12:03:25;30.00;95.60
6581;DHT22;3324;50.796;7.228;2022-08-19T12:05:51;30.20;95.50
6581;DHT22;3324;50.796;7.228;2022-08-19T12:08:17;30.10;95.90
6581;DHT22;3324;50.796;7.228;2022-08-19T12:10:43;29.90;95.50
6581;DHT22;3324;50.796;7.228;2022-08-19T12:13:11;29.70;96.00
6581;DHT22;3324;50.796;7.228;2022-08-19T12:15:40;29.70;96.50
6581;DHT22;3324;50.796;7.228;2022-08-19T12:18:07;29.50;96.70
6581;DHT22;3324;50.796;7.228;2022-08-19T12:20:38;29.30;96.50
6581;DHT22;3324;50.796;7.228;2022-08-19T12:23:06;29.40;96.50
6581;DHT22;3324;50.796;7.228;2022-08-19T12:25:32;29.60;95.50
6581;DHT22;3324;50.796;7.228;2022-08-19T12:27:58;29.60;95.70
6581;DHT22;3324;50.796;7.228;2022-08-19T12:30:24;29.50;96.20
6581;DHT22;3324;50.796;7.228;2022-08-19T12:32:50;29.60;96.40
6581;DHT22;3324;50.796;7.228;2022-08-19T12:35:17;29.70;95.70
6581;DHT22;3324;50.796;7.228;2022-08-19T12:37:46;29.80;96.10
6581;DHT22;3324;50.796;7.228;2022-08-19T12:40:14;29.90;94.70
6581;DHT22;3324;50.796;7.228;2022-08-19T12:42:40;30.00;95.10
6581;DHT22;3324;50.796;7.228;2022-08-19T12:45:11;30.20;93.40
6581;DHT22;3324;50.796;7.228;2022-08-19T12:47:37;30.20;93.60
6581;DHT22;3324;50.796;7.228;2022-08-19T12:50:03;30.30;94.20
6581;DHT22;3324;50.796;7.228;2022-08-19T12:52:35;30.40;94.00
6581;DHT22;3324;50.796;7.228;2022-08-19T12:55:04;30.50;93.40
6581;DHT22;3324;50.796;7.228;2022-08-19T12:57:30;30.70;93.30
6581;DHT22;3324;50.796;7.228;2022-08-19T12:59:59;30.70;92.80
6581;DHT22;3324;50.796;7.228;2022-08-19T13:02:25;30.80;92.40
6581;DHT22;3324;50.796;7.228;2022-08-19T13:04:51;30.70;92.10
6581;DHT22;3324;50.796;7.228;2022-08-19T13:07:17;30.60;92.10
6581;DHT22;3324;50.796;7.228;2022-08-19T13:09:42;30.40;92.10
6581;DHT22;3324;50.796;7.228;2022-08-19T13:12:08;30.20;92.30
6581;DHT22;3324;50.796;7.228;2022-08-19T13:14:38;30.10;92.50
6581;DHT22;3324;50.796;7.228;2022-08-19T13:17:06;30.10;92.50
6581;DHT22;3324;50.796;7.228;2022-08-19T13:19:31;30.00;92.20
6581;DHT22;3324;50.796;7.228;2022-08-19T13:21:57;29.90;92.50
6581;DHT22;3324;50.796;7.228;2022-08-19T13:24:24;29.60;93.10
6581;DHT22;3324;50.796;7.228;2022-08-19T13:26:50;29.50;93.40
6581;DHT22;3324;50.796;7.228;2022-08-19T13:29:15;29.70;92.70
6581;DHT22;3324;50.796;7.228;2022-08-19T13:31:59;29.70;92.60
6581;DHT22;3324;50.796;7.228;2022-08-19T13:34:44;30.00;91.70
6581;DHT22;3324;50.796;7.228;2022-08-19T13:37:12;30.10;91.20
6581;DHT22;3324;50.796;7.228;2022-08-19T13:39:38;30.10;91.60
6581;DHT22;3324;50.796;7.228;2022-08-19T13:42:04;30.20;91.40
6581;DHT22;3324;50.796;7.228;2022-08-19T13:44:30;30.30;89.40
6581;DHT22;3324;50.796;7.228;2022-08-19T13:47:02;30.50;89.30
6581;DHT22;3324;50.796;7.228;2022-08-19T13:49:33;30.50;86.50
6581;DHT22;3324;50.796;7.228;2022-08-19T13:51:59;30.60;87.00
6581;DHT22;3324;50.796;7.228;2022-08-19T13:54:24;30.40;88.30
6581;DHT22;3324;50.796;7.228;2022-08-19T13:56:50;30.50;87.30
6581;DHT22;3324;50.796;7.228;2022-08-19T13:59:15;30.50;87.20
6581;DHT22;3324;50.796;7.228;2022-08-19T14:01:42;30.60;86.50
6581;DHT22;3324;50.796;7.228;2022-08-19T14:04:08;30.60;87.50
6581;DHT22;3324;50.796;7.228;2022-08-19T14:06:34;30.60;87.00
6581;DHT22;3324;50.796;7.228;2022-08-19T14:09:00;30.60;87.60
6581;DHT22;3324;50.796;7.228;2022-08-19T14:11:27;30.60;88.00
6581;DHT22;3324;50.796;7.228;2022-08-19T14:13:53;30.40;88.80
6581;DHT22;3324;50.796;7.228;2022-08-19T14:16:19;30.30;88.80
6581;DHT22;3324;50.796;7.228;2022-08-19T14:18:44;30.30;89.10
6581;DHT22;3324;50.796;7.228;2022-08-19T14:21:20;30.20;88.30
6581;DHT22;3324;50.796;7.228;2022-08-19T14:23:46;30.10;88.30
6581;DHT22;3324;50.796;7.228;2022-08-19T14:26:16;30.10;88.60
6581;DHT22;3324;50.796;7.228;2022-08-19T14:28:43;29.90;89.80
6581;DHT22;3324;50.796;7.228;2022-08-19T14:31:11;30.00;89.30
6581;DHT22;3324;50.796;7.228;2022-08-19T14:33:37;29.90;89.50
6581;DHT22;3324;50.796;7.228;2022-08-19T14:36:03;29.70;87.80
6581;DHT22;3324;50.796;7.228;2022-08-19T14:38:29;29.60;89.40
6581;DHT22;3324;50.796;7.228;2022-08-19T14:41:06;29.50;88.50
6581;DHT22;3324;50.796;7.228;2022-08-19T14:43:33;29.60;88.30
6581;DHT22;3324;50.796;7.228;2022-08-19T14:45:59;29.60;87.30
6581;DHT22;3324;50.796;7.228;2022-08-19T14:48:25;29.60;86.90
6581;DHT22;3324;50.796;7.228;2022-08-19T14:50:51;29.60;87.70
6581;DHT22;3324;50.796;7.228;2022-08-19T14:53:17;29.60;87.80
6581;DHT22;3324;50.796;7.228;2022-08-19T14:55:44;29.80;88.40
6581;DHT22;3324;50.796;7.228;2022-08-19T14:58:11;29.80;87.30
6581;DHT22;3324;50.796;7.228;2022-08-19T15:00:37;29.90;86.60
6581;DHT22;3324;50.796;7.228;2022-08-19T15:03:03;29.90;86.20
6581;DHT22;3324;50.796;7.228;2022-08-19T15:05:28;29.90;87.30
6581;DHT22;3324;50.796;7.228;2022-08-19T15:07:54;30.00;85.60
6581;DHT22;3324;50.796;7.228;2022-08-19T15:10:22;29.70;86.40
6581;DHT22;3324;50.796;7.228;2022-08-19T15:12:48;29.70;87.30
6581;DHT22;3324;50.796;7.228;2022-08-19T15:15:15;29.80;85.70
6581;DHT22;3324;50.796;7.228;2022-08-19T15:17:43;29.80;83.80
6581;DHT22;3324;50.796;7.228;2022-08-19T15:20:10;29.70;85.60
6581;DHT22;3324;50.796;7.228;2022-08-19T15:22:37;29.40;85.70
6581;DHT22;3324;50.796;7.228;2022-08-19T15:25:04;29.50;84.00
6581;DHT22;3324;50.796;7.228;2022-08-19T15:27:30;29.40;84.40
6581;DHT22;3324;50.796;7.228;2022-08-19T15:29:56;29.10;85.00
6581;DHT22;3324;50.796;7.228;2022-08-19T15:32:22;29.00;85.80
6581;DHT22;3324;50.796;7.228;2022-08-19T15:34:48;28.80;87.30
6581;DHT22;3324;50.796;7.228;2022-08-19T15:37:14;28.70;88.30
6581;DHT22;3324;50.796;7.228;2022-08-19T15:39:40;28.60;88.90
6581;DHT22;3324;50.796;7.228;2022-08-19T15:42:06;28.60;90.30
6581;DHT22;3324;50.796;7.228;2022-08-19T15:44:32;28.50;90.50
6581;DHT22;3324;50.796;7.228;2022-08-19T15:46:58;28.30;90.70
6581;DHT22;3324;50.796;7.228;2022-08-19T15:49:24;28.30;91.30
6581;DHT22;3324;50.796;7.228;2022-08-19T15:51:50;28.10;91.70
6581;DHT22;3324;50.796;7.228;2022-08-19T15:54:20;27.90;92.10
6581;DHT22;3324;50.796;7.228;2022-08-19T15:56:47;27.90;91.60
6581;DHT22;3324;50.796;7.228;2022-08-19T15:59:33;27.90;91.80
6581;DHT22;3324;50.796;7.228;2022-08-19T16:02:20;27.80;92.10
6581;DHT22;3324;50.796;7.228;2022-08-19T16:05:15;27.80;92.00
6581;DHT22;3324;50.796;7.228;2022-08-19T16:07:59;27.80;91.60
6581;DHT22;3324;50.796;7.228;2022-08-19T16:10:25;27.90;91.80
6581;DHT22;3324;50.796;7.228;2022-08-19T16:12:51;27.90;91.40
6581;DHT22;3324;50.796;7.228;2022-08-19T16:15:17;27.80;91.00
6581;DHT22;3324;50.796;7.228;2022-08-19T16:17:42;27.80;91.30
6581;DHT22;3324;50.796;7.228;2022-08-19T16:20:09;27.70;91.70
6581;DHT22;3324;50.796;7.228;2022-08-19T16:22:38;27.70;90.60
6581;DHT22;3324;50.796;7.228;2022-08-19T16:25:06;27.60;91.20